sensor_id;sensor_type;location;lat;lon;timestamp;P1;durP1;ratioP1;P2;durP2;ratioP2
52450;SDS011;38366;53.176;6.540;2022-09-09T00:02:03;16.65;;;10.13;;
52450;SDS011;38366;53.176;6.540;2022-09-09T00:04:34;14.32;;;10.60;;
52450;SDS011;38366;53.176;6.540;2022-09-09T00:09:53;15.85;;;9.85;;
52450;SDS011;38366;53.176;6.540;2022-09-09T00:15:32;16.90;;;9.98;;
52450;SDS011;38366;53.176;6.540;2022-09-09T00:18:17;16.42;;;10.60;;
52450;SDS011;38366;53.176;6.540;2022-09-09T00:26:19;18.02;;;10.45;;
52450;SDS011;38366;53.176;6.540;2022-09-09T00:31:35;20.02;;;11.68;;
52450;SDS011;38366;53.176;6.540;2022-09-09T00:34:12;22.65;;;10.68;;
52450;SDS011;38366;53.176;6.540;2022-09-09T00:36:41;17.83;;;10.23;;
52450;SDS011;38366;53.176;6.540;2022-09-09T00:39:11;18.08;;;10.90;;
52450;SDS011;38366;53.176;6.540;2022-09-09T00:44:35;15.43;;;10.38;;
52450;SDS011;38366;53.176;6.540;2022-09-09T00:55:28;15.18;;;9.93;;
52450;SDS011;38366;53.176;6.540;2022-09-09T00:58:18;15.93;;;10.60;;
52450;SDS011;38366;53.176;6.540;2022-09-09T01:00:46;14.52;;;10.85;;
52450;SDS011;38366;53.176;6.540;2022-09-09T01:09:01;14.75;;;9.55;;
52450;SDS011;38366;53.176;6.540;2022-09-09T01:11:51;16.95;;;10.23;;
52450;SDS011;38366;53.176;6.540;2022-09-09T01:17:13;14.63;;;9.40;;
52450;SDS011;38366;53.176;6.540;2022-09-09T01:27:54;17.77;;;10.00;;
52450;SDS011;38366;53.176;6.540;2022-09-09T01:30:23;16.10;;;10.20;;
52450;SDS011;38366;53.176;6.540;2022-09-09T01:32:53;17.13;;;10.27;;
52450;SDS011;38366;53.176;6.540;2022-09-09T01:37:51;13.05;;;10.05;;
52450;SDS011;38366;53.176;6.540;2022-09-09T01:40:17;17.15;;;10.30;;
52450;SDS011;38366;53.176;6.540;2022-09-09T01:42:44;13.38;;;10.18;;
52450;SDS011;38366;53.176;6.540;2022-09-09T01:45:09;16.37;;;9.70;;
52450;SDS011;38366;53.176;6.540;2022-09-09T01:47:35;16.17;;;10.38;;
52450;SDS011;38366;53.176;6.540;2022-09-09T01:50:01;15.30;;;9.93;;
52450;SDS011;38366;53.176;6.540;2022-09-09T01:52:28;15.02;;;10.77;;
52450;SDS011;38366;53.176;6.540;2022-09-09T01:54:55;15.50;;;9.98;;
52450;SDS011;38366;53.176;6.540;2022-09-09T01:57:28;15.43;;;10.48;;
52450;SDS011;38366;53.176;6.540;2022-09-09T02:00:08;14.07;;;9.52;;
52450;SDS011;38366;53.176;6.540;2022-09-09T02:02:39;15.40;;;10.18;;
52450;SDS011;38366;53.176;6.540;2022-09-09T02:05:36;16.85;;;10.65;;
52450;SDS011;38366;53.176;6.540;2022-09-09T02:08:08;18.45;;;10.95;;
52450;SDS011;38366;53.176;6.540;2022-09-09T02:10:53;16.55;;;10.68;;
52450;SDS011;38366;53.176;6.540;2022-09-09T02:13:24;19.25;;;10.75;;
52450;SDS011;38366;53.176;6.540;2022-09-09T02:18:21;19.17;;;11.32;;
52450;SDS011;38366;53.176;6.540;2022-09-09T02:20:52;17.33;;;11.45;;
52450;SDS011;38366;53.176;6.540;2022-09-09T02:23:19;19.27;;;11.60;;
52450;SDS011;38366;53.176;6.540;2022-09-09T02:25:45;19.70;;;12.45;;
52450;SDS011;38366;53.176;6.540;2022-09-09T02:28:13;18.55;;;11.20;;
52450;SDS011;38366;53.176;6.540;2022-09-09T02:30:41;20.17;;;11.20;;
52450;SDS011;38366;53.176;6.540;2022-09-09T02:33:11;19.10;;;10.43;;
52450;SDS011;38366;53.176;6.540;2022-09-09T02:35:39;19.80;;;10.80;;
52450;SDS011;38366;53.176;6.540;2022-09-09T02:38:09;14.07;;;10.32;;
52450;SDS011;38366;53.176;6.540;2022-09-09T02:40:38;17.35;;;10.60;;
52450;SDS011;38366;53.176;6.540;2022-09-09T02:43:04;17.92;;;10.38;;
52450;SDS011;38366;53.176;6.540;2022-09-09T02:46:32;16.73;;;11.00;;
52450;SDS011;38366;53.176;6.540;2022-09-09T02:48:35;18.77;;;11.00;;
52450;SDS011;38366;53.176;6.540;2022-09-09T02:54:18;20.00;;;10.55;;
52450;SDS011;38366;53.176;6.540;2022-09-09T02:56:51;16.17;;;10.27;;
52450;SDS011;38366;53.176;6.540;2022-09-09T02:59:19;18.33;;;10.50;;
52450;SDS011;38366;53.176;6.540;2022-09-09T03:01:46;18.73;;;10.88;;
52450;SDS011;38366;53.176;6.540;2022-09-09T03:04:12;14.83;;;9.87;;
52450;SDS011;38366;53.176;6.540;2022-09-09T03:06:38;16.40;;;10.25;;
52450;SDS011;38366;53.176;6.540;2022-09-09T03:09:04;17.95;;;10.13;;
52450;SDS011;38366;53.176;6.540;2022-09-09T03:11:30;19.08;;;10.85;;
52450;SDS011;38366;53.176;6.540;2022-09-09T03:13:56;14.80;;;10.33;;
52450;SDS011;38366;53.176;6.540;2022-09-09T03:16:22;16.50;;;10.47;;
52450;SDS011;38366;53.176;6.540;2022-09-09T03:18:48;18.83;;;9.90;;
52450;SDS011;38366;53.176;6.540;2022-09-09T03:21:14;14.90;;;8.75;;
52450;SDS011;38366;53.176;6.540;2022-09-09T03:23:40;14.15;;;8.95;;
52450;SDS011;38366;53.176;6.540;2022-09-09T03:26:06;15.30;;;9.68;;
52450;SDS011;38366;53.176;6.540;2022-09-09T03:28:32;17.13;;;10.13;;
52450;SDS011;38366;53.176;6.540;2022-09-09T03:30:59;19.02;;;9.95;;
52450;SDS011;38366;53.176;6.540;2022-09-09T03:33:25;13.38;;;9.48;;
52450;SDS011;38366;53.176;6.540;2022-09-09T03:35:51;16.20;;;8.38;;
52450;SDS011;38366;53.176;6.540;2022-09-09T03:38:17;14.55;;;8.55;;
52450;SDS011;38366;53.176;6.540;2022-09-09T03:40:49;15.60;;;8.68;;
52450;SDS011;38366;53.176;6.540;2022-09-09T03:43:16;16.13;;;7.30;;
52450;SDS011;38366;53.176;6.540;2022-09-09T03:45:48;13.55;;;7.30;;
52450;SDS011;38366;53.176;6.540;2022-09-09T03:48:14;13.68;;;7.20;;
52450;SDS011;38366;53.176;6.540;2022-09-09T03:50:47;13.73;;;7.00;;
52450;SDS011;38366;53.176;6.540;2022-09-09T03:53:15;12.00;;;7.22;;
52450;SDS011;38366;53.176;6.540;2022-09-09T03:55:45;11.82;;;6.30;;
52450;SDS011;38366;53.176;6.540;2022-09-09T03:58:13;11.48;;;6.10;;
52450;SDS011;38366;53.176;6.540;2022-09-09T04:00:40;11.20;;;5.70;;
52450;SDS011;38366;53.176;6.540;2022-09-09T04:03:11;8.02;;;5.35;;
52450;SDS011;38366;53.176;6.540;2022-09-09T04:05:38;10.48;;;5.60;;
52450;SDS011;38366;53.176;6.540;2022-09-09T04:08:07;9.07;;;4.80;;
52450;SDS011;38366;53.176;6.540;2022-09-09T04:10:33;8.65;;;4.68;;
52450;SDS011;38366;53.176;6.540;2022-09-09T04:13:02;10.80;;;5.13;;
52450;SDS011;38366;53.176;6.540;2022-09-09T04:15:29;9.43;;;4.97;;
52450;SDS011;38366;53.176;6.540;2022-09-09T04:20:21;6.75;;;4.15;;
52450;SDS011;38366;53.176;6.540;2022-09-09T04:22:47;11.45;;;4.40;;
52450;SDS011;38366;53.176;6.540;2022-09-09T04:25:13;9.32;;;4.70;;
52450;SDS011;38366;53.176;6.540;2022-09-09T04:27:40;10.40;;;4.35;;
52450;SDS011;38366;53.176;6.540;2022-09-09T04:30:08;7.00;;;4.47;;
52450;SDS011;38366;53.176;6.540;2022-09-09T04:32:34;8.60;;;4.30;;
52450;SDS011;38366;53.176;6.540;2022-09-09T04:35:00;6.15;;;4.32;;
52450;SDS011;38366;53.176;6.540;2022-09-09T04:37:26;7.10;;;4.78;;
52450;SDS011;38366;53.176;6.540;2022-09-09T04:39:52;7.53;;;4.60;;
52450;SDS011;38366;53.176;6.540;2022-09-09T04:42:17;10.50;;;5.47;;
52450;SDS011;38366;53.176;6.540;2022-09-09T04:47:10;12.77;;;5.95;;
52450;SDS011;38366;53.176;6.540;2022-09-09T04:49:35;8.70;;;5.53;;
52450;SDS011;38366;53.176;6.540;2022-09-09T04:52:02;9.02;;;5.30;;
52450;SDS011;38366;53.176;6.540;2022-09-09T04:54:28;9.68;;;5.13;;
52450;SDS011;38366;53.176;6.540;2022-09-09T04:56:54;8.80;;;5.70;;
52450;SDS011;38366;53.176;6.540;2022-09-09T04:59:20;9.40;;;5.43;;
52450;SDS011;38366;53.176;6.540;2022-09-09T05:04:12;10.38;;;5.97;;
52450;SDS011;38366;53.176;6.540;2022-09-09T05:06:41;9.70;;;6.28;;
52450;SDS011;38366;53.176;6.540;2022-09-09T05:09:07;12.23;;;6.80;;
52450;SDS011;38366;53.176;6.540;2022-09-09T05:11:34;10.65;;;6.90;;
52450;SDS011;38366;53.176;6.540;2022-09-09T05:14:03;11.30;;;7.50;;
52450;SDS011;38366;53.176;6.540;2022-09-09T05:16:29;11.82;;;7.70;;
52450;SDS011;38366;53.176;6.540;2022-09-09T05:18:55;12.95;;;7.60;;
52450;SDS011;38366;53.176;6.540;2022-09-09T05:21:22;13.32;;;7.63;;
52450;SDS011;38366;53.176;6.540;2022-09-09T05:23:50;12.38;;;7.50;;
52450;SDS011;38366;53.176;6.540;2022-09-09T05:26:19;14.70;;;8.18;;
52450;SDS011;38366;53.176;6.540;2022-09-09T05:28:46;12.43;;;7.78;;
52450;SDS011;38366;53.176;6.540;2022-09-09T05:31:12;14.25;;;8.75;;
52450;SDS011;38366;53.176;6.540;2022-09-09T05:33:43;15.25;;;8.55;;
52450;SDS011;38366;53.176;6.540;2022-09-09T05:36:12;14.43;;;8.52;;
52450;SDS011;38366;53.176;6.540;2022-09-09T05:38:39;13.23;;;8.68;;
52450;SDS011;38366;53.176;6.540;2022-09-09T05:43:32;18.52;;;9.85;;
52450;SDS011;38366;53.176;6.540;2022-09-09T05:46:05;14.43;;;9.65;;
52450;SDS011;38366;53.176;6.540;2022-09-09T05:48:34;15.57;;;9.85;;
52450;SDS011;38366;53.176;6.540;2022-09-09T05:51:04;14.60;;;9.50;;
52450;SDS011;38366;53.176;6.540;2022-09-09T05:53:32;14.43;;;9.07;;
52450;SDS011;38366;53.176;6.540;2022-09-09T05:56:06;15.68;;;9.80;;
52450;SDS011;38366;53.176;6.540;2022-09-09T06:03:39;14.70;;;9.88;;
52450;SDS011;38366;53.176;6.540;2022-09-09T06:06:07;17.75;;;9.77;;
52450;SDS011;38366;53.176;6.540;2022-09-09T06:08:35;17.13;;;9.55;;
52450;SDS011;38366;53.176;6.540;2022-09-09T06:11:16;15.20;;;9.30;;
52450;SDS011;38366;53.176;6.540;2022-09-09T06:13:43;14.40;;;9.23;;
52450;SDS011;38366;53.176;6.540;2022-09-09T06:16:10;13.40;;;8.43;;
52450;SDS011;38366;53.176;6.540;2022-09-09T06:18:37;11.98;;;8.93;;
52450;SDS011;38366;53.176;6.540;2022-09-09T06:21:04;11.23;;;8.25;;
52450;SDS011;38366;53.176;6.540;2022-09-09T06:23:33;13.30;;;8.52;;
52450;SDS011;38366;53.176;6.540;2022-09-09T06:28:27;12.67;;;8.93;;
52450;SDS011;38366;53.176;6.540;2022-09-09T06:30:57;12.35;;;7.82;;
52450;SDS011;38366;53.176;6.540;2022-09-09T06:33:23;14.75;;;8.88;;
52450;SDS011;38366;53.176;6.540;2022-09-09T06:35:52;12.00;;;7.53;;
52450;SDS011;38366;53.176;6.540;2022-09-09T06:38:19;13.23;;;8.40;;
52450;SDS011;38366;53.176;6.540;2022-09-09T06:40:51;11.40;;;7.53;;
52450;SDS011;38366;53.176;6.540;2022-09-09T06:43:21;11.02;;;7.45;;
52450;SDS011;38366;53.176;6.540;2022-09-09T06:45:58;9.68;;;7.88;;
52450;SDS011;38366;53.176;6.540;2022-09-09T06:48:28;9.73;;;7.18;;
52450;SDS011;38366;53.176;6.540;2022-09-09T06:51:04;9.73;;;7.05;;
52450;SDS011;38366;53.176;6.540;2022-09-09T06:53:32;12.32;;;7.70;;
52450;SDS011;38366;53.176;6.540;2022-09-09T06:56:02;10.27;;;7.55;;
52450;SDS011;38366;53.176;6.540;2022-09-09T06:58:49;8.63;;;6.53;;
52450;SDS011;38366;53.176;6.540;2022-09-09T07:01:18;9.93;;;7.07;;
52450;SDS011;38366;53.176;6.540;2022-09-09T07:03:49;11.35;;;7.00;;
52450;SDS011;38366;53.176;6.540;2022-09-09T07:06:17;8.77;;;6.45;;
52450;SDS011;38366;53.176;6.540;2022-09-09T07:08:52;9.30;;;7.03;;
52450;SDS011;38366;53.176;6.540;2022-09-09T07:11:26;10.55;;;6.82;;
52450;SDS011;38366;53.176;6.540;2022-09-09T07:13:53;11.18;;;7.22;;
52450;SDS011;38366;53.176;6.540;2022-09-09T07:16:20;12.77;;;6.97;;
52450;SDS011;38366;53.176;6.540;2022-09-09T07:18:49;10.90;;;6.75;;
52450;SDS011;38366;53.176;6.540;2022-09-09T07:21:16;8.75;;;5.93;;
52450;SDS011;38366;53.176;6.540;2022-09-09T07:23:42;9.95;;;6.85;;
52450;SDS011;38366;53.176;6.540;2022-09-09T07:26:18;8.32;;;6.50;;
52450;SDS011;38366;53.176;6.540;2022-09-09T07:28:46;10.75;;;6.47;;
52450;SDS011;38366;53.176;6.540;2022-09-09T07:31:20;9.00;;;6.30;;
52450;SDS011;38366;53.176;6.540;2022-09-09T07:33:48;9.68;;;6.30;;
52450;SDS011;38366;53.176;6.540;2022-09-09T07:38:46;9.73;;;5.57;;
52450;SDS011;38366;53.176;6.540;2022-09-09T07:41:15;8.45;;;6.30;;
52450;SDS011;38366;53.176;6.540;2022-09-09T07:43:43;8.68;;;5.75;;
52450;SDS011;38366;53.176;6.540;2022-09-09T07:46:11;8.50;;;5.95;;
52450;SDS011;38366;53.176;6.540;2022-09-09T07:48:38;7.70;;;5.78;;
52450;SDS011;38366;53.176;6.540;2022-09-09T07:51:11;8.02;;;5.75;;
52450;SDS011;38366;53.176;6.540;2022-09-09T07:53:43;7.28;;;5.10;;
52450;SDS011;38366;53.176;6.540;2022-09-09T07:58:36;7.37;;;5.20;;
52450;SDS011;38366;53.176;6.540;2022-09-09T08:01:07;6.88;;;5.00;;
52450;SDS011;38366;53.176;6.540;2022-09-09T08:03:33;6.38;;;4.90;;
52450;SDS011;38366;53.176;6.540;2022-09-09T08:06:03;5.15;;;4.45;;
52450;SDS011;38366;53.176;6.540;2022-09-09T08:08:31;6.22;;;4.68;;
52450;SDS011;38366;53.176;6.540;2022-09-09T08:11:04;6.57;;;4.88;;
52450;SDS011;38366;53.176;6.540;2022-09-09T08:13:33;7.43;;;4.32;;
52450;SDS011;38366;53.176;6.540;2022-09-09T08:16:06;6.18;;;4.40;;
52450;SDS011;38366;53.176;6.540;2022-09-09T08:18:37;7.65;;;5.07;;
52450;SDS011;38366;53.176;6.540;2022-09-09T08:23:34;6.35;;;4.07;;
52450;SDS011;38366;53.176;6.540;2022-09-09T08:26:07;5.72;;;4.07;;
52450;SDS011;38366;53.176;6.540;2022-09-09T08:28:39;9.07;;;4.50;;
52450;SDS011;38366;53.176;6.540;2022-09-09T08:33:41;7.30;;;4.22;;
52450;SDS011;38366;53.176;6.540;2022-09-09T08:36:11;6.35;;;4.32;;
52450;SDS011;38366;53.176;6.540;2022-09-09T08:38:40;7.40;;;4.80;;
52450;SDS011;38366;53.176;6.540;2022-09-09T08:44:07;7.72;;;4.50;;
52450;SDS011;38366;53.176;6.540;2022-09-09T08:49:41;5.47;;;4.00;;
52450;SDS011;38366;53.176;6.540;2022-09-09T08:52:17;5.45;;;3.80;;
52450;SDS011;38366;53.176;6.540;2022-09-09T08:54:46;5.40;;;3.63;;
52450;SDS011;38366;53.176;6.540;2022-09-09T08:57:18;5.60;;;3.67;;
52450;SDS011;38366;53.176;6.540;2022-09-09T08:59:51;6.60;;;3.80;;
52450;SDS011;38366;53.176;6.540;2022-09-09T09:08:20;8.00;;;3.42;;
52450;SDS011;38366;53.176;6.540;2022-09-09T09:10:56;4.35;;;3.28;;
52450;SDS011;38366;53.176;6.540;2022-09-09T09:18:51;6.78;;;3.65;;
52450;SDS011;38366;53.176;6.540;2022-09-09T09:21:20;6.70;;;3.10;;
52450;SDS011;38366;53.176;6.540;2022-09-09T09:23:58;6.50;;;3.15;;
52450;SDS011;38366;53.176;6.540;2022-09-09T09:26:26;5.47;;;2.80;;
52450;SDS011;38366;53.176;6.540;2022-09-09T09:29:03;6.53;;;3.28;;
52450;SDS011;38366;53.176;6.540;2022-09-09T09:31:37;5.57;;;3.20;;
52450;SDS011;38366;53.176;6.540;2022-09-09T09:34:03;6.88;;;2.80;;
52450;SDS011;38366;53.176;6.540;2022-09-09T09:37:07;4.93;;;2.65;;
52450;SDS011;38366;53.176;6.540;2022-09-09T09:41:54;5.15;;;2.47;;
52450;SDS011;38366;53.176;6.540;2022-09-09T09:44:30;4.90;;;2.47;;
52450;SDS011;38366;53.176;6.540;2022-09-09T09:47:13;10.40;;;2.90;;
52450;SDS011;38366;53.176;6.540;2022-09-09T09:49:57;6.78;;;2.88;;
52450;SDS011;38366;53.176;6.540;2022-09-09T09:52:33;9.25;;;3.10;;
52450;SDS011;38366;53.176;6.540;2022-09-09T09:55:02;6.45;;;2.90;;
52450;SDS011;38366;53.176;6.540;2022-09-09T09:57:30;8.30;;;3.15;;
52450;SDS011;38366;53.176;6.540;2022-09-09T10:00:00;4.82;;;2.38;;
52450;SDS011;38366;53.176;6.540;2022-09-09T10:02:31;5.90;;;2.65;;
52450;SDS011;38366;53.176;6.540;2022-09-09T10:05:05;5.63;;;2.47;;
52450;SDS011;38366;53.176;6.540;2022-09-09T10:08:08;7.07;;;2.40;;
52450;SDS011;38366;53.176;6.540;2022-09-09T10:10:59;6.63;;;2.28;;
52450;SDS011;38366;53.176;6.540;2022-09-09T10:16:02;7.82;;;2.25;;
52450;SDS011;38366;53.176;6.540;2022-09-09T10:19:03;8.45;;;2.08;;
52450;SDS011;38366;53.176;6.540;2022-09-09T10:30:18;7.95;;;2.20;;
52450;SDS011;38366;53.176;6.540;2022-09-09T10:32:49;7.30;;;1.70;;
52450;SDS011;38366;53.176;6.540;2022-09-09T10:38:18;5.93;;;1.52;;
52450;SDS011;38366;53.176;6.540;2022-09-09T10:44:16;4.47;;;1.45;;
52450;SDS011;38366;53.176;6.540;2022-09-09T10:55:00;6.70;;;1.73;;
52450;SDS011;38366;53.176;6.540;2022-09-09T11:00:19;6.55;;;1.83;;
52450;SDS011;38366;53.176;6.540;2022-09-09T11:02:49;3.38;;;1.00;;
52450;SDS011;38366;53.176;6.540;2022-09-09T11:05:27;3.70;;;0.98;;
52450;SDS011;38366;53.176;6.540;2022-09-09T11:08:19;4.45;;;1.00;;
52450;SDS011;38366;53.176;6.540;2022-09-09T11:13:49;4.15;;;0.90;;
52450;SDS011;38366;53.176;6.540;2022-09-09T11:16:25;7.72;;;1.13;;
52450;SDS011;38366;53.176;6.540;2022-09-09T11:21:49;3.78;;;0.95;;
52450;SDS011;38366;53.176;6.540;2022-09-09T11:30:02;3.40;;;0.85;;
52450;SDS011;38366;53.176;6.540;2022-09-09T11:38:19;7.22;;;1.20;;
52450;SDS011;38366;53.176;6.540;2022-09-09T11:41:07;3.63;;;1.13;;
52450;SDS011;38366;53.176;6.540;2022-09-09T11:46:03;8.70;;;1.27;;
52450;SDS011;38366;53.176;6.540;2022-09-09T11:53:32;3.50;;;1.10;;
52450;SDS011;38366;53.176;6.540;2022-09-09T11:56:03;4.00;;;0.95;;
52450;SDS011;38366;53.176;6.540;2022-09-09T11:58:38;5.43;;;1.38;;
52450;SDS011;38366;53.176;6.540;2022-09-09T12:04:26;5.80;;;1.10;;
52450;SDS011;38366;53.176;6.540;2022-09-09T12:06:59;4.75;;;1.10;;
52450;SDS011;38366;53.176;6.540;2022-09-09T12:19:41;5.40;;;0.90;;
52450;SDS011;38366;53.176;6.540;2022-09-09T12:30:31;4.72;;;0.90;;
52450;SDS011;38366;53.176;6.540;2022-09-09T12:33:09;6.35;;;1.13;;
52450;SDS011;38366;53.176;6.540;2022-09-09T12:38:10;5.50;;;1.20;;
52450;SDS011;38366;53.176;6.540;2022-09-09T12:40:53;4.65;;;1.00;;
52450;SDS011;38366;53.176;6.540;2022-09-09T12:43:23;4.15;;;0.90;;
52450;SDS011;38366;53.176;6.540;2022-09-09T12:45:51;4.10;;;0.90;;
52450;SDS011;38366;53.176;6.540;2022-09-09T12:48:23;4.00;;;1.10;;
52450;SDS011;38366;53.176;6.540;2022-09-09T12:50:59;4.65;;;1.33;;
52450;SDS011;38366;53.176;6.540;2022-09-09T12:56:00;5.78;;;1.10;;
52450;SDS011;38366;53.176;6.540;2022-09-09T12:58:30;5.70;;;1.05;;
52450;SDS011;38366;53.176;6.540;2022-09-09T13:01:00;4.18;;;1.00;;
52450;SDS011;38366;53.176;6.540;2022-09-09T13:03:30;4.72;;;1.00;;
52450;SDS011;38366;53.176;6.540;2022-09-09T13:06:13;3.58;;;1.00;;
52450;SDS011;38366;53.176;6.540;2022-09-09T13:11:10;5.47;;;1.00;;
52450;SDS011;38366;53.176;6.540;2022-09-09T13:13:41;4.22;;;1.10;;
52450;SDS011;38366;53.176;6.540;2022-09-09T13:16:22;3.35;;;1.02;;
52450;SDS011;38366;53.176;6.540;2022-09-09T13:18:51;6.15;;;1.25;;
52450;SDS011;38366;53.176;6.540;2022-09-09T13:21:18;5.30;;;1.10;;
52450;SDS011;38366;53.176;6.540;2022-09-09T13:23:48;4.28;;;0.80;;
52450;SDS011;38366;53.176;6.540;2022-09-09T13:26:25;4.43;;;0.90;;
52450;SDS011;38366;53.176;6.540;2022-09-09T13:28:54;3.13;;;0.68;;
52450;SDS011;38366;53.176;6.540;2022-09-09T13:31:33;4.35;;;1.13;;
52450;SDS011;38366;53.176;6.540;2022-09-09T13:34:11;5.00;;;1.20;;
52450;SDS011;38366;53.176;6.540;2022-09-09T13:37:01;4.28;;;0.90;;
52450;SDS011;38366;53.176;6.540;2022-09-09T13:39:31;3.67;;;1.08;;
52450;SDS011;38366;53.176;6.540;2022-09-09T13:41:59;3.85;;;0.95;;
52450;SDS011;38366;53.176;6.540;2022-09-09T13:44:30;5.35;;;1.00;;
52450;SDS011;38366;53.176;6.540;2022-09-09T13:47:17;4.40;;;0.93;;
52450;SDS011;38366;53.176;6.540;2022-09-09T13:49:48;4.72;;;0.98;;
52450;SDS011;38366;53.176;6.540;2022-09-09T13:54:41;2.40;;;0.80;;
52450;SDS011;38366;53.176;6.540;2022-09-09T13:57:14;3.22;;;0.57;;
52450;SDS011;38366;53.176;6.540;2022-09-09T13:59:47;2.10;;;0.60;;
52450;SDS011;38366;53.176;6.540;2022-09-09T14:02:15;3.67;;;0.70;;
52450;SDS011;38366;53.176;6.540;2022-09-09T14:04:42;4.20;;;0.95;;
52450;SDS011;38366;53.176;6.540;2022-09-09T14:09:37;3.58;;;0.70;;
52450;SDS011;38366;53.176;6.540;2022-09-09T14:12:03;3.13;;;0.70;;
52450;SDS011;38366;53.176;6.540;2022-09-09T14:14:29;6.97;;;1.10;;
52450;SDS011;38366;53.176;6.540;2022-09-09T14:16:55;4.32;;;0.80;;
52450;SDS011;38366;53.176;6.540;2022-09-09T14:19:21;4.50;;;0.90;;
52450;SDS011;38366;53.176;6.540;2022-09-09T14:21:46;2.50;;;0.70;;
52450;SDS011;38366;53.176;6.540;2022-09-09T14:24:12;3.67;;;0.70;;
52450;SDS011;38366;53.176;6.540;2022-09-09T14:26:38;5.68;;;0.90;;
52450;SDS011;38366;53.176;6.540;2022-09-09T14:29:03;3.60;;;0.95;;
52450;SDS011;38366;53.176;6.540;2022-09-09T14:31:29;4.00;;;0.95;;
52450;SDS011;38366;53.176;6.540;2022-09-09T14:33:55;4.43;;;0.77;;
52450;SDS011;38366;53.176;6.540;2022-09-09T14:36:20;3.55;;;0.80;;
52450;SDS011;38366;53.176;6.540;2022-09-09T14:38:46;3.53;;;0.32;;
52450;SDS011;38366;53.176;6.540;2022-09-09T14:41:14;1.55;;;0.32;;
52450;SDS011;38366;53.176;6.540;2022-09-09T14:43:48;2.47;;;0.30;;
52450;SDS011;38366;53.176;6.540;2022-09-09T14:48:41;2.20;;;0.40;;
52450;SDS011;38366;53.176;6.540;2022-09-09T14:53:34;3.38;;;0.20;;
52450;SDS011;38366;53.176;6.540;2022-09-09T14:56:04;2.63;;;0.30;;
52450;SDS011;38366;53.176;6.540;2022-09-09T14:58:31;2.22;;;0.30;;
52450;SDS011;38366;53.176;6.540;2022-09-09T15:01:18;1.95;;;0.38;;
52450;SDS011;38366;53.176;6.540;2022-09-09T15:03:48;0.63;;;0.25;;
52450;SDS011;38366;53.176;6.540;2022-09-09T15:06:16;1.15;;;0.20;;
52450;SDS011;38366;53.176;6.540;2022-09-09T15:08:42;1.92;;;0.30;;
52450;SDS011;38366;53.176;6.540;2022-09-09T15:11:09;1.42;;;0.43;;
52450;SDS011;38366;53.176;6.540;2022-09-09T15:13:37;2.60;;;0.57;;
52450;SDS011;38366;53.176;6.540;2022-09-09T15:16:08;1.55;;;0.40;;
52450;SDS011;38366;53.176;6.540;2022-09-09T15:18:37;2.80;;;0.50;;
52450;SDS011;38366;53.176;6.540;2022-09-09T15:21:08;1.50;;;0.47;;
52450;SDS011;38366;53.176;6.540;2022-09-09T15:23:41;2.38;;;0.70;;
52450;SDS011;38366;53.176;6.540;2022-09-09T15:28:34;2.20;;;0.60;;
52450;SDS011;38366;53.176;6.540;2022-09-09T15:31:07;2.05;;;0.32;;
52450;SDS011;38366;53.176;6.540;2022-09-09T15:33:39;2.88;;;0.60;;
52450;SDS011;38366;53.176;6.540;2022-09-09T15:36:15;1.55;;;0.80;;
52450;SDS011;38366;53.176;6.540;2022-09-09T15:38:41;1.98;;;0.45;;
52450;SDS011;38366;53.176;6.540;2022-09-09T15:41:07;3.22;;;0.52;;
52450;SDS011;38366;53.176;6.540;2022-09-09T15:43:32;1.17;;;0.35;;
52450;SDS011;38366;53.176;6.540;2022-09-09T15:45:59;1.33;;;0.47;;
52450;SDS011;38366;53.176;6.540;2022-09-09T15:51:35;2.40;;;0.40;;
52450;SDS011;38366;53.176;6.540;2022-09-09T15:54:02;6.72;;;0.70;;
52450;SDS011;38366;53.176;6.540;2022-09-09T15:56:29;2.92;;;0.32;;
52450;SDS011;38366;53.176;6.540;2022-09-09T15:58:55;1.77;;;0.40;;
52450;SDS011;38366;53.176;6.540;2022-09-09T16:01:22;2.50;;;0.55;;
52450;SDS011;38366;53.176;6.540;2022-09-09T16:03:48;3.33;;;0.60;;
52450;SDS011;38366;53.176;6.540;2022-09-09T16:06:18;2.88;;;0.60;;
52450;SDS011;38366;53.176;6.540;2022-09-09T16:08:47;2.08;;;0.40;;
52450;SDS011;38366;53.176;6.540;2022-09-09T16:13:45;1.77;;;0.57;;
52450;SDS011;38366;53.176;6.540;2022-09-09T16:16:13;2.53;;;0.60;;
52450;SDS011;38366;53.176;6.540;2022-09-09T16:18:46;2.55;;;0.52;;
52450;SDS011;38366;53.176;6.540;2022-09-09T16:21:15;3.15;;;0.68;;
52450;SDS011;38366;53.176;6.540;2022-09-09T16:23:45;2.00;;;0.55;;
52450;SDS011;38366;53.176;6.540;2022-09-09T16:26:14;3.45;;;0.70;;
52450;SDS011;38366;53.176;6.540;2022-09-09T16:28:41;2.55;;;0.52;;
52450;SDS011;38366;53.176;6.540;2022-09-09T16:33:35;1.73;;;0.70;;
52450;SDS011;38366;53.176;6.540;2022-09-09T16:36:08;2.28;;;0.65;;
52450;SDS011;38366;53.176;6.540;2022-09-09T16:38:37;3.30;;;0.68;;
52450;SDS011;38366;53.176;6.540;2022-09-09T16:43:31;3.55;;;0.70;;
52450;SDS011;38366;53.176;6.540;2022-09-09T16:45:57;3.90;;;0.82;;
52450;SDS011;38366;53.176;6.540;2022-09-09T16:48:26;2.50;;;0.60;;
52450;SDS011;38366;53.176;6.540;2022-09-09T16:50:52;2.78;;;0.80;;
52450;SDS011;38366;53.176;6.540;2022-09-09T16:53:18;1.92;;;0.80;;
52450;SDS011;38366;53.176;6.540;2022-09-09T16:55:43;1.83;;;0.70;;
52450;SDS011;38366;53.176;6.540;2022-09-09T16:58:12;2.47;;;0.70;;
52450;SDS011;38366;53.176;6.540;2022-09-09T17:00:38;1.92;;;0.70;;
52450;SDS011;38366;53.176;6.540;2022-09-09T17:03:04;2.67;;;0.88;;
52450;SDS011;38366;53.176;6.540;2022-09-09T17:05:30;3.85;;;0.90;;
52450;SDS011;38366;53.176;6.540;2022-09-09T17:07:57;5.20;;;1.00;;
52450;SDS011;38366;53.176;6.540;2022-09-09T17:10:24;3.58;;;0.93;;
52450;SDS011;38366;53.176;6.540;2022-09-09T17:12:50;3.10;;;0.90;;
52450;SDS011;38366;53.176;6.540;2022-09-09T17:15:16;3.40;;;1.05;;
52450;SDS011;38366;53.176;6.540;2022-09-09T17:17:43;3.25;;;1.30;;
52450;SDS011;38366;53.176;6.540;2022-09-09T17:20:10;3.97;;;0.80;;
52450;SDS011;38366;53.176;6.540;2022-09-09T17:25:02;3.65;;;0.90;;
52450;SDS011;38366;53.176;6.540;2022-09-09T17:27:31;2.55;;;1.00;;
52450;SDS011;38366;53.176;6.540;2022-09-09T17:29:57;3.45;;;0.82;;
52450;SDS011;38366;53.176;6.540;2022-09-09T17:32:23;2.95;;;0.90;;
52450;SDS011;38366;53.176;6.540;2022-09-09T17:37:15;2.38;;;0.95;;
52450;SDS011;38366;53.176;6.540;2022-09-09T17:39:43;5.03;;;1.23;;
52450;SDS011;38366;53.176;6.540;2022-09-09T17:42:09;4.10;;;1.00;;
52450;SDS011;38366;53.176;6.540;2022-09-09T17:44:35;2.55;;;1.08;;
52450;SDS011;38366;53.176;6.540;2022-09-09T17:47:01;4.13;;;1.10;;
52450;SDS011;38366;53.176;6.540;2022-09-09T17:49:29;4.43;;;1.15;;
52450;SDS011;38366;53.176;6.540;2022-09-09T17:51:55;3.08;;;1.08;;
52450;SDS011;38366;53.176;6.540;2022-09-09T17:54:21;5.15;;;1.38;;
52450;SDS011;38366;53.176;6.540;2022-09-09T17:56:47;2.78;;;1.10;;
52450;SDS011;38366;53.176;6.540;2022-09-09T18:01:41;3.20;;;1.30;;
52450;SDS011;38366;53.176;6.540;2022-09-09T18:04:12;3.80;;;1.20;;
52450;SDS011;38366;53.176;6.540;2022-09-09T18:06:39;3.08;;;1.02;;
52450;SDS011;38366;53.176;6.540;2022-09-09T18:09:08;2.47;;;1.10;;
52450;SDS011;38366;53.176;6.540;2022-09-09T18:11:40;3.95;;;1.20;;
52450;SDS011;38366;53.176;6.540;2022-09-09T18:14:14;4.25;;;1.02;;
52450;SDS011;38366;53.176;6.540;2022-09-09T18:16:42;2.95;;;1.10;;
52450;SDS011;38366;53.176;6.540;2022-09-09T18:19:10;3.80;;;1.23;;
52450;SDS011;38366;53.176;6.540;2022-09-09T18:21:38;4.45;;;1.02;;
52450;SDS011;38366;53.176;6.540;2022-09-09T18:24:05;3.72;;;1.30;;
52450;SDS011;38366;53.176;6.540;2022-09-09T18:26:31;2.88;;;1.40;;
52450;SDS011;38366;53.176;6.540;2022-09-09T18:29:00;4.10;;;1.40;;